sensor_id;sensor_type;location;lat;lon;timestamp;pressure;altitude;pressure_sealevel;temperature;humidity
12077;BME280;12420;42.676;23.262;2023-05-07T00:02:30;94809.28;;;12.49;100.00
12077;BME280;12420;42.676;23.262;2023-05-07T00:04:59;94810.34;;;12.46;100.00
12077;BME280;12420;42.676;23.262;2023-05-07T00:07:25;94794.66;;;12.35;100.00
12077;BME280;12420;42.676;23.262;2023-05-07T00:09:52;94810.06;;;12.36;100.00
12077;BME280;12420;42.676;23.262;2023-05-07T00:12:19;94774.50;;;12.08;100.00
12077;BME280;12420;42.676;23.262;2023-05-07T00:14:46;94806.63;;;12.17;100.00
12077;BME280;12420;42.676;23.262;2023-05-07T00:17:13;94800.97;;;12.09;100.00
12077;BME280;12420;42.676;23.262;2023-05-07T00:19:39;94802.56;;;12.05;100.00
12077;BME280;12420;42.676;23.262;2023-05-07T00:22:08;94793.72;;;12.06;100.00
12077;BME280;12420;42.676;23.262;2023-05-07T00:24:35;94798.31;;;12.04;100.00
12077;BME280;12420;42.676;23.262;2023-05-07T00:27:02;94788.59;;;11.97;100.00
12077;BME280;12420;42.676;23.262;2023-05-07T00:29:29;94787.84;;;11.97;100.00
12077;BME280;12420;42.676;23.262;2023-05-07T00:31:56;94793.91;;;11.95;100.00
12077;BME280;12420;42.676;23.262;2023-05-07T00:34:23;94796.38;;;11.99;100.00
12077;BME280;12420;42.676;23.262;2023-05-07T00:36:49;94771.72;;;11.95;100.00
12077;BME280;12420;42.676;23.262;2023-05-07T00:39:17;94793.81;;;12.14;100.00
12077;BME280;12420;42.676;23.262;2023-05-07T00:41:44;94792.94;;;12.06;100.00
12077;BME280;12420;42.676;23.262;2023-05-07T00:44:11;94805.34;;;12.05;100.00
12077;BME280;12420;42.676;23.262;2023-05-07T00:46:38;94809.06;;;12.07;100.00
12077;BME280;12420;42.676;23.262;2023-05-07T00:49:05;94806.72;;;11.98;100.00
12077;BME280;12420;42.676;23.262;2023-05-07T00:51:32;94805.41;;;11.86;100.00
12077;BME280;12420;42.676;23.262;2023-05-07T00:54:00;94809.31;;;11.77;100.00
12077;BME280;12420;42.676;23.262;2023-05-07T00:56:29;94809.09;;;11.75;100.00
12077;BME280;12420;42.676;23.262;2023-05-07T00:58:57;94804.50;;;11.64;100.00
12077;BME280;12420;42.676;23.262;2023-05-07T01:01:23;94794.13;;;11.51;100.00
12077;BME280;12420;42.676;23.262;2023-05-07T01:03:51;94800.53;;;11.60;100.00
12077;BME280;12420;42.676;23.262;2023-05-07T01:06:19;94798.47;;;11.47;100.00
12077;BME280;12420;42.676;23.262;2023-05-07T01:08:47;94804.03;;;11.47;100.00
12077;BME280;12420;42.676;23.262;2023-05-07T01:11:16;94802.09;;;11.42;100.00
12077;BME280;12420;42.676;23.262;2023-05-07T01:13:46;94792.53;;;11.43;100.00
12077;BME280;12420;42.676;23.262;2023-05-07T01:16:14;94785.03;;;11.38;100.00
12077;BME280;12420;42.676;23.262;2023-05-07T01:18:40;94799.56;;;11.44;100.00
12077;BME280;12420;42.676;23.262;2023-05-07T01:21:10;94809.16;;;11.43;100.00
12077;BME280;12420;42.676;23.262;2023-05-07T01:23:39;94805.97;;;11.52;100.00
12077;BME280;12420;42.676;23.262;2023-05-07T01:26:07;94805.97;;;11.52;100.00
12077;BME280;12420;42.676;23.262;2023-05-07T01:28:34;94808.84;;;11.60;100.00
12077;BME280;12420;42.676;23.262;2023-05-07T01:31:02;94813.00;;;11.53;100.00
12077;BME280;12420;42.676;23.262;2023-05-07T01:33:33;94789.69;;;11.29;100.00
12077;BME280;12420;42.676;23.262;2023-05-07T01:36:01;94800.03;;;11.29;100.00
12077;BME280;12420;42.676;23.262;2023-05-07T01:38:32;94805.16;;;11.25;100.00
12077;BME280;12420;42.676;23.262;2023-05-07T01:41:00;94798.41;;;11.20;100.00
12077;BME280;12420;42.676;23.262;2023-05-07T01:43:28;94789.81;;;11.05;100.00
12077;BME280;12420;42.676;23.262;2023-05-07T01:45:55;94789.41;;;11.14;100.00
12077;BME280;12420;42.676;23.262;2023-05-07T01:48:24;94789.38;;;11.01;100.00
12077;BME280;12420;42.676;23.262;2023-05-07T01:50:51;94765.97;;;11.02;100.00
12077;BME280;12420;42.676;23.262;2023-05-07T01:53:18;94779.41;;;11.11;100.00
12077;BME280;12420;42.676;23.262;2023-05-07T01:55:45;94775.66;;;11.08;100.00
12077;BME280;12420;42.676;23.262;2023-05-07T01:58:13;94779.84;;;11.15;100.00
12077;BME280;12420;42.676;23.262;2023-05-07T02:00:40;94777.09;;;11.15;100.00
12077;BME280;12420;42.676;23.262;2023-05-07T02:03:07;94770.47;;;11.18;100.00
12077;BME280;12420;42.676;23.262;2023-05-07T02:05:33;94765.56;;;11.11;100.00
12077;BME280;12420;42.676;23.262;2023-05-07T02:08:00;94766.53;;;11.14;100.00
12077;BME280;12420;42.676;23.262;2023-05-07T02:10:27;94755.97;;;11.12;100.00
12077;BME280;12420;42.676;23.262;2023-05-07T02:12:54;94752.75;;;11.08;100.00
12077;BME280;12420;42.676;23.262;2023-05-07T02:15:22;94756.19;;;11.14;100.00
12077;BME280;12420;42.676;23.262;2023-05-07T02:17:59;94764.59;;;11.08;100.00
12077;BME280;12420;42.676;23.262;2023-05-07T02:20:26;94757.84;;;11.04;100.00
12077;BME280;12420;42.676;23.262;2023-05-07T02:22:53;94745.88;;;10.96;100.00
12077;BME280;12420;42.676;23.262;2023-05-07T02:25:20;94762.34;;;11.07;100.00
12077;BME280;12420;42.676;23.262;2023-05-07T02:27:47;94762.97;;;11.00;100.00
12077;BME280;12420;42.676;23.262;2023-05-07T02:30:14;94752.66;;;10.81;100.00
12077;BME280;12420;42.676;23.262;2023-05-07T02:32:42;94765.97;;;10.83;100.00
12077;BME280;12420;42.676;23.262;2023-05-07T02:35:09;94760.97;;;10.81;100.00
12077;BME280;12420;42.676;23.262;2023-05-07T02:37:36;94755.50;;;10.76;100.00
12077;BME280;12420;42.676;23.262;2023-05-07T02:40:04;94730.47;;;10.49;100.00
12077;BME280;12420;42.676;23.262;2023-05-07T02:42:30;94766.94;;;10.85;100.00
12077;BME280;12420;42.676;23.262;2023-05-07T02:44:57;94769.19;;;10.87;100.00
12077;BME280;12420;42.676;23.262;2023-05-07T02:47:24;94760.75;;;10.79;100.00
12077;BME280;12420;42.676;23.262;2023-05-07T02:49:53;94764.56;;;10.76;100.00
12077;BME280;12420;42.676;23.262;2023-05-07T02:52:20;94760.16;;;10.86;100.00
12077;BME280;12420;42.676;23.262;2023-05-07T02:54:47;94759.22;;;10.78;100.00
12077;BME280;12420;42.676;23.262;2023-05-07T02:57:14;94766.72;;;10.83;100.00
12077;BME280;12420;42.676;23.262;2023-05-07T02:59:41;94776.97;;;10.89;100.00
12077;BME280;12420;42.676;23.262;2023-05-07T03:02:09;94777.72;;;10.89;100.00
12077;BME280;12420;42.676;23.262;2023-05-07T03:04:36;94782.72;;;10.91;100.00
12077;BME280;12420;42.676;23.262;2023-05-07T03:07:04;94780.78;;;10.85;100.00
12077;BME280;12420;42.676;23.262;2023-05-07T03:09:31;94772.88;;;10.76;100.00
12077;BME280;12420;42.676;23.262;2023-05-07T03:11:57;94755.06;;;10.53;100.00
12077;BME280;12420;42.676;23.262;2023-05-07T03:14:24;94777.22;;;10.72;100.00
12077;BME280;12420;42.676;23.262;2023-05-07T03:16:51;94786.03;;;10.70;100.00
12077;BME280;12420;42.676;23.262;2023-05-07T03:19:18;94786.50;;;10.74;100.00
12077;BME280;12420;42.676;23.262;2023-05-07T03:21:44;94790.97;;;10.77;100.00
12077;BME280;12420;42.676;23.262;2023-05-07T03:24:12;94779.00;;;10.69;100.00
12077;BME280;12420;42.676;23.262;2023-05-07T03:26:39;94784.25;;;10.54;100.00
12077;BME280;12420;42.676;23.262;2023-05-07T03:29:06;94794.78;;;10.74;100.00
12077;BME280;12420;42.676;23.262;2023-05-07T03:31:33;94796.72;;;10.60;100.00
12077;BME280;12420;42.676;23.262;2023-05-07T03:34:00;94790.75;;;10.75;100.00
12077;BME280;12420;42.676;23.262;2023-05-07T03:36:26;94730.44;;;10.30;100.00
12077;BME280;12420;42.676;23.262;2023-05-07T03:38:53;94790.00;;;10.75;100.00
12077;BME280;12420;42.676;23.262;2023-05-07T03:41:21;94776.31;;;10.63;100.00
12077;BME280;12420;42.676;23.262;2023-05-07T03:43:48;94788.72;;;10.57;100.00
12077;BME280;12420;42.676;23.262;2023-05-07T03:46:15;94801.06;;;10.75;100.00
12077;BME280;12420;42.676;23.262;2023-05-07T03:48:41;94797.47;;;10.80;100.00
12077;BME280;12420;42.676;23.262;2023-05-07T03:51:08;94799.94;;;10.83;100.00
12077;BME280;12420;42.676;23.262;2023-05-07T03:53:35;94801.69;;;10.86;100.00
12077;BME280;12420;42.676;23.262;2023-05-07T03:56:02;94777.06;;;10.64;100.00
12077;BME280;12420;42.676;23.262;2023-05-07T03:58:31;94803.00;;;10.99;100.00
12077;BME280;12420;42.676;23.262;2023-05-07T04:00:59;94790.94;;;10.96;100.00
12077;BME280;12420;42.676;23.262;2023-05-07T04:03:26;94804.09;;;11.09;100.00
12077;BME280;12420;42.676;23.262;2023-05-07T04:05:53;94824.09;;;11.21;100.00
12077;BME280;12420;42.676;23.262;2023-05-07T04:08:21;94805.91;;;11.06;100.00
12077;BME280;12420;42.676;23.262;2023-05-07T04:10:48;94796.03;;;11.11;100.00
12077;BME280;12420;42.676;23.262;2023-05-07T04:13:20;94838.81;;;11.48;100.00
12077;BME280;12420;42.676;23.262;2023-05-07T04:15:48;94842.34;;;11.62;100.00
12077;BME280;12420;42.676;23.262;2023-05-07T04:18:15;94851.47;;;11.76;100.00
12077;BME280;12420;42.676;23.262;2023-05-07T04:20:44;94851.19;;;11.92;100.00
12077;BME280;12420;42.676;23.262;2023-05-07T04:23:11;94850.25;;;12.03;100.00
12077;BME280;12420;42.676;23.262;2023-05-07T04:25:38;94855.06;;;12.16;100.00
12077;BME280;12420;42.676;23.262;2023-05-07T04:28:05;94883.81;;;12.32;100.00
12077;BME280;12420;42.676;23.262;2023-05-07T04:30:32;94858.72;;;12.37;100.00
12077;BME280;12420;42.676;23.262;2023-05-07T04:33:00;94868.44;;;12.57;100.00
12077;BME280;12420;42.676;23.262;2023-05-07T04:35:27;94866.94;;;12.70;100.00
12077;BME280;12420;42.676;23.262;2023-05-07T04:37:53;94873.97;;;12.84;100.00
12077;BME280;12420;42.676;23.262;2023-05-07T04:40:22;94872.44;;;12.96;100.00
12077;BME280;12420;42.676;23.262;2023-05-07T04:42:49;94880.53;;;13.08;100.00
12077;BME280;12420;42.676;23.262;2023-05-07T04:45:16;94869.63;;;13.23;100.00
12077;BME280;12420;42.676;23.262;2023-05-07T04:47:43;94873.75;;;13.43;100.00
12077;BME280;12420;42.676;23.262;2023-05-07T04:50:12;94886.19;;;13.63;100.00
12077;BME280;12420;42.676;23.262;2023-05-07T04:52:39;94884.34;;;13.65;100.00
12077;BME280;12420;42.676;23.262;2023-05-07T04:55:07;94847.91;;;13.56;100.00
12077;BME280;12420;42.676;23.262;2023-05-07T04:57:34;94873.72;;;13.77;100.00
12077;BME280;12420;42.676;23.262;2023-05-07T05:00:01;94871.13;;;14.00;100.00
12077;BME280;12420;42.676;23.262;2023-05-07T05:02:29;94850.78;;;13.84;100.00
12077;BME280;12420;42.676;23.262;2023-05-07T05:04:56;94882.09;;;14.27;100.00
12077;BME280;12420;42.676;23.262;2023-05-07T05:07:24;94878.19;;;14.51;100.00
12077;BME280;12420;42.676;23.262;2023-05-07T05:09:50;94854.22;;;14.48;100.00
12077;BME280;12420;42.676;23.262;2023-05-07T05:12:17;94886.28;;;14.70;99.69
12077;BME280;12420;42.676;23.262;2023-05-07T05:14:44;94879.91;;;14.54;99.94
12077;BME280;12420;42.676;23.262;2023-05-07T05:17:11;94886.34;;;14.49;100.00
12077;BME280;12420;42.676;23.262;2023-05-07T05:19:38;94874.31;;;14.54;100.00
12077;BME280;12420;42.676;23.262;2023-05-07T05:22:05;94855.06;;;14.64;100.00
12077;BME280;12420;42.676;23.262;2023-05-07T05:24:33;94884.78;;;14.97;100.00
12077;BME280;12420;42.676;23.262;2023-05-07T05:27:00;94882.41;;;15.09;100.00
12077;BME280;12420;42.676;23.262;2023-05-07T05:29:27;94884.69;;;15.26;99.56
12077;BME280;12420;42.676;23.262;2023-05-07T05:31:54;94882.88;;;14.92;97.69
12077;BME280;12420;42.676;23.262;2023-05-07T05:34:20;94888.94;;;15.12;97.51
12077;BME280;12420;42.676;23.262;2023-05-07T05:36:47;94890.25;;;15.18;100.00
12077;BME280;12420;42.676;23.262;2023-05-07T05:39:14;94892.53;;;15.28;98.02
12077;BME280;12420;42.676;23.262;2023-05-07T05:41:42;94886.53;;;15.24;96.51
12077;BME280;12420;42.676;23.262;2023-05-07T05:44:09;94892.41;;;14.97;98.88
12077;BME280;12420;42.676;23.262;2023-05-07T05:46:36;94889.28;;;15.08;98.44
12077;BME280;12420;42.676;23.262;2023-05-07T05:49:02;94890.84;;;15.25;97.66
12077;BME280;12420;42.676;23.262;2023-05-07T05:51:29;94895.53;;;15.37;97.21
12077;BME280;12420;42.676;23.262;2023-05-07T05:53:56;94890.47;;;15.28;94.84
12077;BME280;12420;42.676;23.262;2023-05-07T05:56:22;94894.00;;;15.29;96.30
12077;BME280;12420;42.676;23.262;2023-05-07T05:58:50;94891.47;;;15.46;98.51
12077;BME280;12420;42.676;23.262;2023-05-07T06:01:17;94898.19;;;15.58;95.77
12077;BME280;12420;42.676;23.262;2023-05-07T06:03:44;94877.00;;;15.55;97.07
12077;BME280;12420;42.676;23.262;2023-05-07T06:06:11;94886.75;;;15.85;95.07
12077;BME280;12420;42.676;23.262;2023-05-07T06:08:37;94899.41;;;16.01;93.96
12077;BME280;12420;42.676;23.262;2023-05-07T06:11:04;94900.53;;;16.06;92.01
12077;BME280;12420;42.676;23.262;2023-05-07T06:13:31;94901.09;;;16.20;92.32
12077;BME280;12420;42.676;23.262;2023-05-07T06:16:00;94913.00;;;16.28;90.23
12077;BME280;12420;42.676;23.262;2023-05-07T06:18:27;94895.31;;;16.33;90.26
12077;BME280;12420;42.676;23.262;2023-05-07T06:20:54;94890.50;;;16.41;89.27
12077;BME280;12420;42.676;23.262;2023-05-07T06:23:21;94864.44;;;16.31;87.57
12077;BME280;12420;42.676;23.262;2023-05-07T06:25:48;94903.53;;;16.46;83.38
12077;BME280;12420;42.676;23.262;2023-05-07T06:28:15;94892.16;;;16.52;84.70
12077;BME280;12420;42.676;23.262;2023-05-07T06:30:42;94881.53;;;16.50;84.19
12077;BME280;12420;42.676;23.262;2023-05-07T06:33:10;94879.28;;;16.72;82.92
12077;BME280;12420;42.676;23.262;2023-05-07T06:35:37;94880.41;;;16.69;83.43
12077;BME280;12420;42.676;23.262;2023-05-07T06:38:03;94877.41;;;16.82;81.71
12077;BME280;12420;42.676;23.262;2023-05-07T06:40:30;94887.03;;;16.97;81.37
12077;BME280;12420;42.676;23.262;2023-05-07T06:42:57;94871.53;;;17.11;80.15
12077;BME280;12420;42.676;23.262;2023-05-07T06:45:23;94873.56;;;17.18;80.32
12077;BME280;12420;42.676;23.262;2023-05-07T06:47:50;94843.16;;;17.14;83.20
12077;BME280;12420;42.676;23.262;2023-05-07T06:50:19;94867.28;;;17.43;78.42
12077;BME280;12420;42.676;23.262;2023-05-07T06:52:45;94871.13;;;17.55;78.29
12077;BME280;12420;42.676;23.262;2023-05-07T06:55:12;94850.28;;;17.48;77.54
12077;BME280;12420;42.676;23.262;2023-05-07T06:57:39;94865.38;;;17.53;77.21
12077;BME280;12420;42.676;23.262;2023-05-07T07:00:06;94872.56;;;17.71;77.03
12077;BME280;12420;42.676;23.262;2023-05-07T07:02:34;94873.63;;;17.84;76.50
12077;BME280;12420;42.676;23.262;2023-05-07T07:05:01;94875.78;;;17.93;76.19
12077;BME280;12420;42.676;23.262;2023-05-07T07:07:29;94877.72;;;17.83;76.65
12077;BME280;12420;42.676;23.262;2023-05-07T07:09:56;94851.34;;;17.61;76.81
12077;BME280;12420;42.676;23.262;2023-05-07T07:12:23;94842.28;;;17.77;76.70
12077;BME280;12420;42.676;23.262;2023-05-07T07:14:51;94867.63;;;18.12;74.91
12077;BME280;12420;42.676;23.262;2023-05-07T07:17:17;94865.91;;;18.17;74.76
12077;BME280;12420;42.676;23.262;2023-05-07T07:19:44;94859.53;;;18.16;74.82
12077;BME280;12420;42.676;23.262;2023-05-07T07:22:11;94867.31;;;18.26;73.65
12077;BME280;12420;42.676;23.262;2023-05-07T07:24:39;94852.00;;;18.27;73.26
12077;BME280;12420;42.676;23.262;2023-05-07T07:27:05;94852.66;;;18.17;76.81
12077;BME280;12420;42.676;23.262;2023-05-07T07:29:32;94860.56;;;18.29;74.14
12077;BME280;12420;42.676;23.262;2023-05-07T07:31:59;94856.28;;;18.28;73.01
12077;BME280;12420;42.676;23.262;2023-05-07T07:34:25;94857.25;;;18.48;71.30
12077;BME280;12420;42.676;23.262;2023-05-07T07:36:52;94856.50;;;18.64;70.71
12077;BME280;12420;42.676;23.262;2023-05-07T07:39:19;94860.50;;;18.79;72.25
12077;BME280;12420;42.676;23.262;2023-05-07T07:41:47;94865.44;;;18.71;69.49
12077;BME280;12420;42.676;23.262;2023-05-07T07:44:14;94873.78;;;18.78;70.84
12077;BME280;12420;42.676;23.262;2023-05-07T07:46:41;94870.75;;;18.84;70.60
12077;BME280;12420;42.676;23.262;2023-05-07T07:49:08;94841.19;;;18.65;69.92
12077;BME280;12420;42.676;23.262;2023-05-07T07:51:35;94864.06;;;18.79;72.32
12077;BME280;12420;42.676;23.262;2023-05-07T07:54:02;94872.38;;;18.87;71.42
12077;BME280;12420;42.676;23.262;2023-05-07T07:56:29;94869.50;;;18.95;72.68
12077;BME280;12420;42.676;23.262;2023-05-07T07:58:57;94866.13;;;18.96;72.50
12077;BME280;12420;42.676;23.262;2023-05-07T08:01:23;94849.28;;;18.79;73.06
12077;BME280;12420;42.676;23.262;2023-05-07T08:03:51;94854.72;;;19.12;73.46
12077;BME280;12420;42.676;23.262;2023-05-07T08:06:18;94854.03;;;19.21;74.55
12077;BME280;12420;42.676;23.262;2023-05-07T08:08:44;94863.38;;;19.23;73.57
12077;BME280;12420;42.676;23.262;2023-05-07T08:11:11;94860.34;;;19.12;73.65
12077;BME280;12420;42.676;23.262;2023-05-07T08:13:38;94856.63;;;19.26;73.05
12077;BME280;12420;42.676;23.262;2023-05-07T08:16:06;94847.94;;;19.32;71.75
12077;BME280;12420;42.676;23.262;2023-05-07T08:18:33;94857.81;;;19.33;71.43
12077;BME280;12420;42.676;23.262;2023-05-07T08:21:00;94837.38;;;19.23;72.31
12077;BME280;12420;42.676;23.262;2023-05-07T08:23:27;94856.63;;;19.53;71.18
12077;BME280;12420;42.676;23.262;2023-05-07T08:25:54;94856.44;;;19.69;71.20
12077;BME280;12420;42.676;23.262;2023-05-07T08:28:20;94862.16;;;19.88;69.66
12077;BME280;12420;42.676;23.262;2023-05-07T08:30:53;94853.69;;;19.79;69.03
12077;BME280;12420;42.676;23.262;2023-05-07T08:33:23;94846.00;;;19.79;69.75
12077;BME280;12420;42.676;23.262;2023-05-07T08:35:49;94852.09;;;19.85;70.05
12077;BME280;12420;42.676;23.262;2023-05-07T08:38:16;94838.41;;;19.99;68.37
12077;BME280;12420;42.676;23.262;2023-05-07T08:40:43;94843.03;;;20.14;69.24
12077;BME280;12420;42.676;23.262;2023-05-07T08:43:13;94850.78;;;20.23;67.28
12077;BME280;12420;42.676;23.262;2023-05-07T08:45:40;94836.31;;;20.36;66.61
12077;BME280;12420;42.676;23.262;2023-05-07T08:48:09;94827.88;;;20.36;67.83
12077;BME280;12420;42.676;23.262;2023-05-07T08:50:42;94830.41;;;20.52;65.40
12077;BME280;12420;42.676;23.262;2023-05-07T08:53:09;94834.25;;;20.47;66.59
12077;BME280;12420;42.676;23.262;2023-05-07T08:55:35;94837.41;;;20.60;65.30
12077;BME280;12420;42.676;23.262;2023-05-07T08:58:03;94828.97;;;20.70;65.32
12077;BME280;12420;42.676;23.262;2023-05-07T09:00:30;94831.06;;;20.79;63.46
12077;BME280;12420;42.676;23.262;2023-05-07T09:02:57;94828.53;;;20.84;63.34
12077;BME280;12420;42.676;23.262;2023-05-07T09:05:24;94830.78;;;20.85;62.09
12077;BME280;12420;42.676;23.262;2023-05-07T09:07:52;94817.75;;;20.90;62.11
12077;BME280;12420;42.676;23.262;2023-05-07T09:10:20;94828.53;;;20.64;60.51
12077;BME280;12420;42.676;23.262;2023-05-07T09:12:48;94819.50;;;20.56;61.15
12077;BME280;12420;42.676;23.262;2023-05-07T09:15:14;94810.78;;;20.71;61.57
12077;BME280;12420;42.676;23.262;2023-05-07T09:17:41;94801.75;;;20.83;64.30
12077;BME280;12420;42.676;23.262;2023-05-07T09:20:10;94811.22;;;20.87;59.86
12077;BME280;12420;42.676;23.262;2023-05-07T09:22:37;94762.25;;;20.61;59.61
12077;BME280;12420;42.676;23.262;2023-05-07T09:25:06;94803.97;;;20.84;59.75
12077;BME280;12420;42.676;23.262;2023-05-07T09:27:33;94809.75;;;20.96;57.13
12077;BME280;12420;42.676;23.262;2023-05-07T09:30:03;94810.94;;;21.02;56.08
12077;BME280;12420;42.676;23.262;2023-05-07T09:32:34;94801.03;;;20.92;58.76
12077;BME280;12420;42.676;23.262;2023-05-07T09:35:01;94797.00;;;20.95;59.11
12077;BME280;12420;42.676;23.262;2023-05-07T09:37:30;94790.78;;;21.16;57.32
12077;BME280;12420;42.676;23.262;2023-05-07T09:39:58;94791.94;;;21.42;55.49
12077;BME280;12420;42.676;23.262;2023-05-07T09:42:26;94791.16;;;21.61;55.72
12077;BME280;12420;42.676;23.262;2023-05-07T09:44:53;94796.56;;;21.78;56.74
12077;BME280;12420;42.676;23.262;2023-05-07T09:47:20;94789.13;;;21.83;56.67
12077;BME280;12420;42.676;23.262;2023-05-07T09:49:55;94776.53;;;21.43;55.37
12077;BME280;12420;42.676;23.262;2023-05-07T09:52:23;94789.53;;;21.58;56.88
12077;BME280;12420;42.676;23.262;2023-05-07T09:54:50;94779.78;;;21.39;56.33
12077;BME280;12420;42.676;23.262;2023-05-07T09:57:19;94776.34;;;21.60;54.24
12077;BME280;12420;42.676;23.262;2023-05-07T09:59:49;94771.25;;;21.68;54.27
12077;BME280;12420;42.676;23.262;2023-05-07T10:02:17;94768.63;;;21.92;53.15
12077;BME280;12420;42.676;23.262;2023-05-07T10:04:46;94777.56;;;22.20;51.16
12077;BME280;12420;42.676;23.262;2023-05-07T10:07:14;94767.91;;;21.92;52.52
12077;BME280;12420;42.676;23.262;2023-05-07T10:09:42;94778.06;;;22.06;51.39
12077;BME280;12420;42.676;23.262;2023-05-07T10:12:10;94783.59;;;22.26;51.61
12077;BME280;12420;42.676;23.262;2023-05-07T10:14:37;94756.41;;;22.30;51.27
12077;BME280;12420;42.676;23.262;2023-05-07T10:17:05;94769.56;;;22.59;50.98
12077;BME280;12420;42.676;23.262;2023-05-07T10:19:32;94767.06;;;22.42;49.09
12077;BME280;12420;42.676;23.262;2023-05-07T10:22:05;94769.09;;;22.41;48.92
12077;BME280;12420;42.676;23.262;2023-05-07T10:24:33;94780.38;;;22.41;47.78
12077;BME280;12420;42.676;23.262;2023-05-07T10:27:01;94753.81;;;22.44;48.78
12077;BME280;12420;42.676;23.262;2023-05-07T10:29:34;94759.00;;;22.26;46.78
12077;BME280;12420;42.676;23.262;2023-05-07T10:32:25;94754.81;;;22.27;47.15
12077;BME280;12420;42.676;23.262;2023-05-07T10:35:00;94749.50;;;22.43;47.44
12077;BME280;12420;42.676;23.262;2023-05-07T10:37:29;94703.97;;;22.16;45.04
12077;BME280;12420;42.676;23.262;2023-05-07T10:39:56;94742.13;;;22.38;44.46
12077;BME280;12420;42.676;23.262;2023-05-07T10:42:23;94751.13;;;22.46;42.55
12077;BME280;12420;42.676;23.262;2023-05-07T10:44:50;94737.16;;;22.48;44.75
12077;BME280;12420;42.676;23.262;2023-05-07T10:47:18;94744.16;;;22.47;42.25
12077;BME280;12420;42.676;23.262;2023-05-07T10:50:22;94738.75;;;22.51;42.80
12077;BME280;12420;42.676;23.262;2023-05-07T10:53:21;94733.75;;;22.50;44.84
12077;BME280;12420;42.676;23.262;2023-05-07T10:55:50;94723.38;;;22.43;44.14
12077;BME280;12420;42.676;23.262;2023-05-07T10:58:27;94732.16;;;22.59;43.80
12077;BME280;12420;42.676;23.262;2023-05-07T11:00:57;94730.78;;;22.48;44.95
12077;BME280;12420;42.676;23.262;2023-05-07T11:03:26;94736.34;;;22.58;43.53
12077;BME280;12420;42.676;23.262;2023-05-07T11:06:09;94734.31;;;22.70;43.41
12077;BME280;12420;42.676;23.262;2023-05-07T11:09:00;94733.09;;;22.73;42.75
12077;BME280;12420;42.676;23.262;2023-05-07T11:11:44;94737.38;;;22.74;42.20
12077;BME280;12420;42.676;23.262;2023-05-07T11:14:11;94721.09;;;22.72;43.35
12077;BME280;12420;42.676;23.262;2023-05-07T11:16:38;94732.66;;;22.88;41.58
12077;BME280;12420;42.676;23.262;2023-05-07T11:19:08;94729.84;;;22.88;41.17
12077;BME280;12420;42.676;23.262;2023-05-07T11:21:35;94698.28;;;22.80;41.41
12077;BME280;12420;42.676;23.262;2023-05-07T11:24:05;94720.25;;;23.15;42.49
12077;BME280;12420;42.676;23.262;2023-05-07T11:26:42;94719.06;;;23.18;40.90
12077;BME280;12420;42.676;23.262;2023-05-07T11:29:14;94726.94;;;23.31;42.13
12077;BME280;12420;42.676;23.262;2023-05-07T11:31:41;94719.94;;;23.44;42.93
12077;BME280;12420;42.676;23.262;2023-05-07T11:34:09;94696.69;;;23.10;40.13
12077;BME280;12420;42.676;23.262;2023-05-07T11:36:41;94720.41;;;23.29;42.85
12077;BME280;12420;42.676;23.262;2023-05-07T11:39:29;94711.94;;;23.29;41.70
12077;BME280;12420;42.676;23.262;2023-05-07T11:41:56;94709.97;;;23.31;42.61
12077;BME280;12420;42.676;23.262;2023-05-07T11:44:23;94709.22;;;23.19;40.99
12077;BME280;12420;42.676;23.262;2023-05-07T11:46:50;94712.50;;;23.04;40.83
12077;BME280;12420;42.676;23.262;2023-05-07T11:49:18;94710.03;;;23.10;41.52
12077;BME280;12420;42.676;23.262;2023-05-07T11:51:45;94715.69;;;23.10;41.13
12077;BME280;12420;42.676;23.262;2023-05-07T11:54:15;94707.75;;;23.18;40.90
12077;BME280;12420;42.676;23.262;2023-05-07T11:56:43;94702.25;;;23.32;41.69
12077;BME280;12420;42.676;23.262;2023-05-07T11:59:11;94689.25;;;23.38;43.01
12077;BME280;12420;42.676;23.262;2023-05-07T12:01:38;94700.91;;;23.68;43.62
12077;BME280;12420;42.676;23.262;2023-05-07T12:04:05;94702.41;;;23.81;42.58
12077;BME280;12420;42.676;23.262;2023-05-07T12:06:36;94690.97;;;23.91;40.93
12077;BME280;12420;42.676;23.262;2023-05-07T12:09:02;94708.66;;;24.03;39.47
12077;BME280;12420;42.676;23.262;2023-05-07T12:11:30;94692.69;;;24.08;39.20
12077;BME280;12420;42.676;23.262;2023-05-07T12:13:56;94692.34;;;23.90;39.06
12077;BME280;12420;42.676;23.262;2023-05-07T12:16:23;94694.53;;;23.91;38.65
12077;BME280;12420;42.676;23.262;2023-05-07T12:18:50;94694.53;;;24.15;38.02
12077;BME280;12420;42.676;23.262;2023-05-07T12:21:20;94671.03;;;24.12;38.60
12077;BME280;12420;42.676;23.262;2023-05-07T12:23:48;94678.16;;;24.25;38.76
12077;BME280;12420;42.676;23.262;2023-05-07T12:26:15;94673.75;;;24.10;38.12
12077;BME280;12420;42.676;23.262;2023-05-07T12:28:42;94667.72;;;24.16;39.01
12077;BME280;12420;42.676;23.262;2023-05-07T12:31:09;94664.28;;;24.17;38.64
12077;BME280;12420;42.676;23.262;2023-05-07T12:33:35;94665.44;;;24.38;39.24
12077;BME280;12420;42.676;23.262;2023-05-07T12:36:05;94667.16;;;24.43;39.70
12077;BME280;12420;42.676;23.262;2023-05-07T12:38:35;94665.03;;;24.55;37.45
12077;BME280;12420;42.676;23.262;2023-05-07T12:41:05;94660.72;;;24.80;37.38
12077;BME280;12420;42.676;23.262;2023-05-07T12:43:32;94657.69;;;24.76;36.09
12077;BME280;12420;42.676;23.262;2023-05-07T12:46:01;94653.03;;;24.94;37.79
12077;BME280;12420;42.676;23.262;2023-05-07T12:48:28;94646.25;;;25.13;36.38
12077;BME280;12420;42.676;23.262;2023-05-07T12:50:55;94637.38;;;25.19;37.21